createdAt,value
2019-03-06T00:01:39.126Z,10.47
2019-03-06T00:04:08.280Z,12.47
2019-03-06T00:06:37.449Z,15.00
2019-03-06T00:09:07.806Z,11.80
2019-03-06T00:11:37.000Z,17.43
2019-03-06T00:14:06.175Z,13.23
2019-03-06T00:16:35.307Z,12.90
2019-03-06T00:19:04.440Z,12.97
2019-03-06T00:21:33.833Z,15.70
2019-03-06T00:24:03.058Z,12.83
2019-03-06T00:26:32.247Z,14.87
2019-03-06T00:29:01.384Z,18.63
2019-03-06T00:31:30.560Z,17.47
2019-03-06T00:33:59.687Z,14.47
2019-03-06T00:36:30.788Z,17.80
2019-03-06T00:39:00.165Z,20.53
2019-03-06T00:41:40.877Z,16.23
2019-03-06T00:44:10.109Z,17.47
2019-03-06T00:46:40.824Z,17.43
2019-03-06T00:49:09.975Z,18.63
2019-03-06T00:51:39.192Z,20.37
2019-03-06T00:54:08.680Z,21.40
2019-03-06T00:56:37.923Z,19.67
2019-03-06T00:59:07.166Z,21.43
2019-03-06T01:01:36.244Z,16.23
2019-03-06T01:04:05.467Z,19.23
2019-03-06T01:06:34.870Z,20.70
2019-03-06T01:09:05.558Z,20.13
2019-03-06T01:11:34.787Z,17.37
2019-03-06T01:14:04.088Z,18.93
2019-03-06T01:16:33.388Z,18.80
2019-03-06T01:19:02.628Z,26.30
2019-03-06T01:21:31.771Z,20.73
2019-03-06T01:24:01.055Z,18.50
2019-03-06T01:26:30.257Z,17.63
2019-03-06T01:28:59.494Z,20.20
2019-03-06T01:31:28.764Z,21.53
2019-03-06T01:34:15.807Z,20.73
2019-03-06T01:36:57.775Z,17.77
2019-03-06T01:39:44.894Z,17.83
2019-03-06T01:42:25.749Z,18.30
2019-03-06T01:44:58.269Z,19.70
2019-03-06T01:47:27.603Z,21.63
2019-03-06T01:49:56.830Z,18.37
2019-03-06T01:52:25.999Z,23.47
2019-03-06T01:54:55.131Z,19.63
2019-03-06T01:57:24.367Z,20.90
2019-03-06T01:59:53.855Z,17.50
2019-03-06T02:02:22.960Z,22.57
2019-03-06T02:04:52.204Z,19.70
2019-03-06T02:07:21.596Z,20.80
2019-03-06T02:09:50.747Z,20.13
2019-03-06T02:12:19.860Z,20.27
2019-03-06T02:14:49.093Z,18.43
2019-03-06T02:17:18.492Z,19.33
2019-03-06T02:19:47.596Z,19.93
2019-03-06T02:22:16.848Z,21.40
2019-03-06T02:24:46.095Z,23.17
2019-03-06T02:27:15.243Z,18.53
2019-03-06T02:29:44.435Z,18.57
2019-03-06T02:32:13.838Z,14.60
2019-03-06T02:34:43.036Z,18.53
2019-03-06T02:37:12.229Z,16.67
2019-03-06T02:39:41.466Z,20.87
2019-03-06T02:42:12.881Z,19.00
2019-03-06T02:44:42.451Z,16.30
2019-03-06T02:47:11.604Z,16.57
2019-03-06T02:49:40.719Z,16.70
2019-03-06T02:52:09.854Z,16.80
2019-03-06T02:54:39.120Z,19.73
2019-03-06T02:57:08.231Z,16.67
2019-03-06T02:59:49.901Z,21.10
2019-03-06T03:02:44.017Z,19.27
2019-03-06T03:05:20.212Z,17.53
2019-03-06T03:07:49.297Z,18.87
2019-03-06T03:10:18.570Z,16.03
2019-03-06T03:12:47.749Z,18.23
2019-03-06T03:15:17.442Z,18.00
2019-03-06T03:17:46.634Z,18.70
2019-03-06T03:20:15.966Z,14.93
2019-03-06T03:22:45.100Z,18.37
2019-03-06T03:25:14.325Z,15.13
2019-03-06T03:27:43.988Z,14.00
2019-03-06T03:30:14.237Z,14.83
2019-03-06T03:32:43.498Z,17.50
2019-03-06T03:35:12.670Z,17.27
2019-03-06T03:37:41.809Z,18.03
2019-03-06T03:40:12.328Z,14.40
2019-03-06T03:42:41.647Z,14.93
2019-03-06T03:45:11.439Z,11.07
2019-03-06T03:47:40.610Z,15.77
2019-03-06T03:50:10.117Z,17.97
2019-03-06T03:52:39.615Z,15.97
2019-03-06T03:55:08.940Z,17.67
2019-03-06T03:57:38.139Z,12.13
2019-03-06T04:00:09.350Z,14.70
2019-03-06T04:02:38.582Z,11.20
2019-03-06T04:05:08.846Z,13.58
2019-03-06T04:07:38.041Z,13.30
2019-03-06T04:10:07.958Z,11.90
2019-03-06T04:12:37.293Z,12.53
2019-03-06T04:15:07.016Z,16.03
2019-03-06T04:17:36.486Z,10.70
2019-03-06T04:20:06.178Z,9.17
2019-03-06T04:22:35.291Z,11.30
2019-03-06T04:25:04.762Z,10.73
2019-03-06T04:27:33.925Z,9.97
2019-03-06T04:30:03.115Z,11.17
2019-03-06T04:32:32.208Z,10.70
2019-03-06T04:35:01.485Z,11.87
2019-03-06T04:37:30.597Z,9.53
2019-03-06T04:39:59.785Z,10.07
2019-03-06T04:42:28.935Z,10.73
2019-03-06T04:44:58.126Z,10.07
2019-03-06T04:47:27.309Z,12.87
2019-03-06T04:49:56.552Z,11.87
2019-03-06T04:52:25.759Z,9.93
2019-03-06T04:54:54.996Z,10.03
2019-03-06T04:57:24.075Z,6.23
2019-03-06T04:59:53.184Z,6.90
2019-03-06T05:02:22.403Z,6.80
2019-03-06T05:04:51.737Z,9.40
2019-03-06T05:07:21.054Z,9.33
2019-03-06T05:09:50.131Z,6.30
2019-03-06T05:12:19.228Z,9.47
2019-03-06T05:14:48.344Z,8.70
2019-03-06T05:17:48.795Z,9.20
2019-03-06T05:20:17.918Z,9.37
2019-03-06T05:22:47.039Z,5.80
2019-03-06T05:25:16.123Z,9.47
2019-03-06T05:27:45.519Z,10.27
2019-03-06T05:30:15.029Z,11.80
2019-03-06T05:32:45.120Z,8.00
2019-03-06T05:35:21.399Z,8.33
2019-03-06T05:38:00.082Z,7.77
2019-03-06T05:40:29.318Z,10.77
2019-03-06T05:42:58.580Z,8.07
2019-03-06T05:45:27.843Z,11.13
2019-03-06T05:47:57.013Z,9.40
2019-03-06T05:50:26.195Z,10.33
2019-03-06T05:52:55.316Z,9.67
2019-03-06T05:55:24.497Z,9.50
2019-03-06T05:57:53.739Z,8.77
2019-03-06T06:00:27.544Z,9.13
2019-03-06T06:02:57.277Z,9.80
2019-03-06T06:05:26.620Z,6.40
2019-03-06T06:08:00.172Z,9.90
2019-03-06T06:10:30.992Z,8.30
2019-03-06T06:13:00.172Z,8.77
2019-03-06T06:15:29.924Z,6.23
2019-03-06T06:17:59.854Z,7.80
2019-03-06T06:20:29.140Z,8.00
2019-03-06T06:23:22.005Z,8.80
2019-03-06T06:25:51.755Z,4.10
2019-03-06T06:28:21.380Z,6.93
2019-03-06T06:30:50.799Z,5.70
2019-03-06T06:33:20.845Z,5.47
2019-03-06T06:35:50.290Z,8.40
2019-03-06T06:38:20.059Z,6.67
2019-03-06T06:40:49.361Z,5.43
2019-03-06T06:43:19.782Z,5.90
2019-03-06T06:45:49.245Z,7.17
2019-03-06T06:48:20.537Z,7.43
2019-03-06T06:51:02.319Z,4.70
2019-03-06T06:54:03.241Z,8.27
2019-03-06T06:57:31.685Z,6.77
2019-03-06T07:01:00.760Z,5.33
2019-03-06T07:04:16.724Z,5.10
2019-03-06T07:07:10.103Z,8.27
2019-03-06T07:10:02.383Z,8.83
2019-03-06T07:12:50.578Z,9.17
2019-03-06T07:15:51.403Z,5.83
2019-03-06T07:18:38.197Z,5.87
2019-03-06T07:21:22.099Z,6.33
2019-03-06T07:24:13.051Z,5.10
2019-03-06T07:27:06.049Z,5.93
2019-03-06T07:29:56.961Z,5.63
2019-03-06T07:33:00.275Z,6.73
2019-03-06T07:36:14.211Z,4.40
2019-03-06T07:38:43.827Z,4.03
2019-03-06T07:41:24.683Z,5.27
2019-03-06T07:44:00.796Z,6.10
2019-03-06T07:46:47.541Z,7.03
2019-03-06T07:49:24.772Z,3.33
2019-03-06T07:52:16.206Z,5.50
2019-03-06T07:55:10.384Z,8.87
2019-03-06T07:58:15.887Z,6.80
2019-03-06T08:00:45.063Z,4.05
2019-03-06T08:03:37.423Z,4.03
2019-03-06T08:06:06.774Z,4.33
2019-03-06T08:08:35.901Z,7.13
2019-03-06T08:11:07.724Z,4.50
2019-03-06T08:13:48.499Z,7.37
2019-03-06T08:16:26.515Z,6.47
2019-03-06T08:19:17.498Z,5.87
2019-03-06T08:22:01.489Z,5.67
2019-03-06T08:24:42.052Z,5.57
2019-03-06T08:27:11.352Z,6.07
2019-03-06T08:29:40.618Z,6.00
2019-03-06T08:32:19.131Z,5.12
2019-03-06T08:34:48.347Z,6.60
2019-03-06T08:37:17.680Z,4.80
2019-03-06T08:39:47.135Z,4.33
2019-03-06T08:42:16.396Z,4.47
2019-03-06T08:44:45.752Z,5.10
2019-03-06T08:47:38.188Z,4.83
2019-03-06T08:50:36.352Z,7.13
2019-03-06T08:53:22.673Z,4.77
2019-03-06T08:56:00.100Z,4.57
2019-03-06T08:58:44.959Z,5.37
2019-03-06T09:02:00.166Z,6.67
2019-03-06T09:04:35.847Z,6.87
2019-03-06T09:07:36.220Z,7.53
2019-03-06T09:10:37.942Z,5.53
2019-03-06T09:13:17.048Z,13.87
2019-03-06T09:16:08.323Z,5.90
2019-03-06T09:18:56.501Z,5.67
2019-03-06T09:21:35.696Z,6.67
2019-03-06T09:24:24.492Z,7.37
2019-03-06T09:27:12.709Z,4.27
2019-03-06T09:29:57.562Z,6.97
2019-03-06T09:32:41.011Z,4.80
2019-03-06T09:35:25.097Z,7.80
2019-03-06T09:38:10.936Z,4.83
2019-03-06T09:40:46.986Z,6.03
2019-03-06T09:43:28.210Z,5.20
2019-03-06T09:46:15.168Z,4.53
2019-03-06T09:48:50.124Z,6.47
2019-03-06T09:51:42.663Z,5.67
2019-03-06T09:54:49.096Z,6.53
2019-03-06T09:57:30.492Z,7.08
2019-03-06T10:00:05.313Z,6.80
2019-03-06T10:02:52.149Z,8.07
2019-03-06T10:05:52.708Z,7.23
2019-03-06T10:08:49.691Z,7.70
2019-03-06T10:11:24.839Z,7.33
2019-03-06T10:14:01.003Z,12.67
2019-03-06T10:16:48.842Z,5.87
2019-03-06T10:19:29.643Z,6.22
2019-03-06T10:21:59.173Z,5.92
2019-03-06T10:24:28.678Z,5.87
2019-03-06T10:26:58.000Z,6.58
2019-03-06T10:29:27.495Z,6.83
2019-03-06T10:31:56.752Z,6.70
2019-03-06T10:34:26.372Z,7.40
2019-03-06T10:36:55.596Z,7.30
2019-03-06T10:39:24.785Z,7.12
2019-03-06T10:41:54.866Z,4.70
2019-03-06T10:44:29.475Z,7.93
2019-03-06T10:46:55.094Z,7.13
2019-03-06T10:49:24.996Z,4.60
2019-03-06T10:51:54.248Z,7.97
2019-03-06T10:54:23.423Z,6.20
2019-03-06T10:56:52.820Z,5.63
2019-03-06T10:59:22.111Z,7.47
2019-03-06T11:01:51.231Z,7.12
2019-03-06T11:04:39.494Z,7.65
2019-03-06T11:07:08.886Z,5.65
2019-03-06T11:09:38.284Z,6.55
2019-03-06T11:12:07.959Z,8.65
2019-03-06T11:14:37.688Z,6.22
2019-03-06T11:17:06.941Z,4.50
2019-03-06T11:19:36.492Z,9.70
2019-03-06T11:22:06.620Z,7.30
2019-03-06T11:24:36.103Z,7.63
2019-03-06T11:27:06.266Z,6.08
2019-03-06T11:29:35.737Z,5.87
2019-03-06T11:32:06.175Z,7.90
2019-03-06T11:34:35.369Z,6.90
2019-03-06T11:37:05.345Z,5.67
2019-03-06T11:39:34.579Z,5.80
2019-03-06T11:42:03.938Z,5.33
2019-03-06T11:44:33.052Z,7.17
2019-03-06T11:47:02.351Z,9.33
2019-03-06T11:49:31.704Z,5.62
2019-03-06T11:52:02.011Z,5.37
2019-03-06T11:54:31.296Z,8.23
2019-03-06T11:57:00.629Z,7.47
2019-03-06T11:59:30.114Z,4.80
2019-03-06T12:01:59.287Z,5.50
2019-03-06T12:04:28.634Z,6.28
2019-03-06T12:06:57.950Z,5.25
2019-03-06T12:09:32.211Z,9.05
2019-03-06T12:12:02.691Z,5.83
2019-03-06T12:14:32.164Z,6.60
2019-03-06T12:17:01.478Z,10.88
2019-03-06T12:19:30.739Z,4.42
2019-03-06T12:22:00.164Z,7.17
2019-03-06T12:24:29.547Z,7.57
2019-03-06T12:26:58.746Z,5.37
2019-03-06T12:29:27.990Z,6.97
2019-03-06T12:31:57.244Z,6.97
2019-03-06T12:34:26.823Z,7.07
2019-03-06T12:36:55.952Z,5.50
2019-03-06T12:39:25.611Z,6.87
2019-03-06T12:41:54.878Z,6.83
2019-03-06T12:44:24.325Z,8.07
2019-03-06T12:46:55.279Z,8.43
2019-03-06T12:49:26.758Z,6.92
2019-03-06T12:51:56.037Z,10.87
2019-03-06T12:54:25.254Z,8.53
2019-03-06T12:56:54.421Z,7.42
2019-03-06T12:59:23.579Z,7.25
2019-03-06T13:01:52.739Z,7.85
2019-03-06T13:04:23.092Z,6.12
2019-03-06T13:06:53.355Z,6.70
2019-03-06T13:09:22.724Z,7.42
2019-03-06T13:11:52.013Z,7.42
2019-03-06T13:14:21.726Z,8.28
2019-03-06T13:16:51.798Z,8.28
2019-03-06T13:19:21.075Z,6.58
2019-03-06T13:21:50.573Z,10.13
2019-03-06T13:24:19.840Z,8.05
2019-03-06T13:26:49.103Z,5.35
2019-03-06T13:29:18.770Z,22.32
2019-03-06T13:31:47.945Z,11.73
2019-03-06T13:34:50.326Z,7.10
2019-03-06T13:37:13.255Z,6.15
2019-03-06T13:39:42.371Z,9.48
2019-03-06T13:42:16.269Z,7.47
2019-03-06T13:44:45.538Z,8.25
2019-03-06T13:47:14.826Z,8.48
2019-03-06T13:49:43.987Z,10.48
2019-03-06T13:52:13.592Z,5.37
2019-03-06T13:54:42.779Z,7.42
2019-03-06T13:57:12.267Z,7.55
2019-03-06T13:59:41.976Z,8.95
2019-03-06T14:02:11.583Z,6.25
2019-03-06T14:04:40.667Z,7.30
2019-03-06T14:07:10.053Z,8.20
2019-03-06T14:09:39.393Z,6.40
2019-03-06T14:12:08.616Z,6.87
2019-03-06T14:14:37.860Z,4.95
2019-03-06T14:17:08.343Z,6.83
2019-03-06T14:19:37.621Z,6.92
2019-03-06T14:22:07.024Z,7.55
2019-03-06T14:24:36.231Z,6.33
2019-03-06T14:27:06.732Z,8.20
2019-03-06T14:29:35.931Z,5.75
2019-03-06T14:32:14.071Z,6.27
2019-03-06T14:34:36.012Z,8.40
2019-03-06T14:37:05.392Z,5.20
2019-03-06T14:39:34.680Z,10.98
2019-03-06T14:42:04.041Z,6.93
2019-03-06T14:44:33.311Z,6.17
2019-03-06T14:47:02.509Z,5.95
2019-03-06T14:49:32.021Z,6.12
2019-03-06T14:52:07.088Z,9.05
2019-03-06T14:54:32.214Z,7.40
2019-03-06T14:57:01.413Z,8.58
2019-03-06T14:59:30.827Z,6.28
2019-03-06T15:02:00.091Z,5.53
2019-03-06T15:04:29.467Z,6.70
2019-03-06T15:06:58.697Z,6.60
2019-03-06T15:09:28.516Z,9.25
2019-03-06T15:11:57.760Z,8.58
2019-03-06T15:14:35.839Z,8.50
2019-03-06T15:16:57.935Z,6.50
2019-03-06T15:19:27.176Z,5.70
2019-03-06T15:21:56.444Z,7.45
2019-03-06T15:24:25.577Z,7.78
2019-03-06T15:26:55.008Z,5.40
2019-03-06T15:29:24.172Z,5.50
2019-03-06T15:31:53.604Z,6.50
2019-03-06T15:34:22.982Z,7.03
2019-03-06T15:36:52.169Z,10.23
2019-03-06T15:39:42.176Z,8.10
2019-03-06T15:42:05.586Z,9.65
2019-03-06T15:44:34.893Z,11.33
2019-03-06T15:47:04.240Z,8.40
2019-03-06T15:49:33.627Z,9.68
2019-03-06T15:52:03.119Z,8.40
2019-03-06T15:54:32.368Z,6.47
2019-03-06T15:57:01.648Z,6.53
2019-03-06T15:59:31.180Z,8.15
2019-03-06T16:02:00.413Z,7.47
2019-03-06T16:04:29.716Z,5.58
2019-03-06T16:06:59.011Z,10.48
2019-03-06T16:09:28.491Z,5.78
2019-03-06T16:11:58.128Z,7.45
2019-03-06T16:14:33.165Z,5.83
2019-03-06T16:17:02.353Z,7.53
2019-03-06T16:19:31.768Z,6.22
2019-03-06T16:22:00.897Z,8.88
2019-03-06T16:24:30.448Z,6.93
2019-03-06T16:26:59.735Z,8.25
2019-03-06T16:29:28.838Z,5.83
2019-03-06T16:31:58.117Z,8.80
2019-03-06T16:34:27.327Z,6.78
2019-03-06T16:36:56.527Z,7.43
2019-03-06T16:39:25.972Z,6.35
2019-03-06T16:41:55.183Z,8.73
2019-03-06T16:44:24.434Z,8.10
2019-03-06T16:46:53.719Z,7.00
2019-03-06T16:49:23.148Z,4.85
2019-03-06T16:51:52.427Z,6.00
2019-03-06T16:54:21.995Z,7.77
2019-03-06T16:57:01.343Z,14.07
2019-03-06T16:59:30.454Z,7.87
2019-03-06T17:01:59.734Z,6.90
2019-03-06T17:04:29.135Z,9.17
2019-03-06T17:06:58.449Z,10.30
2019-03-06T17:09:28.338Z,6.95
2019-03-06T17:11:59.404Z,7.40
2019-03-06T17:14:28.819Z,6.55
2019-03-06T17:16:58.775Z,8.80
2019-03-06T17:19:28.142Z,8.73
2019-03-06T17:21:57.536Z,6.42
2019-03-06T17:24:26.994Z,7.72
2019-03-06T17:26:56.432Z,9.45
2019-03-06T17:29:25.731Z,9.10
2019-03-06T17:31:55.194Z,5.92
2019-03-06T17:34:24.851Z,9.45
2019-03-06T17:36:54.111Z,9.00
2019-03-06T17:39:23.451Z,11.40
2019-03-06T17:41:52.940Z,10.35
2019-03-06T17:44:22.141Z,7.70
2019-03-06T17:46:51.780Z,8.63
2019-03-06T17:49:21.345Z,7.05
2019-03-06T17:51:50.824Z,7.87
2019-03-06T17:54:20.232Z,10.85
2019-03-06T17:56:49.608Z,8.48
2019-03-06T17:59:18.935Z,11.73
2019-03-06T18:01:48.442Z,8.55
2019-03-06T18:04:19.310Z,7.33
2019-03-06T18:06:48.413Z,6.45
2019-03-06T18:09:17.697Z,7.12
2019-03-06T18:11:46.981Z,8.20
2019-03-06T18:14:16.480Z,11.03
2019-03-06T18:17:04.779Z,11.70
2019-03-06T18:19:33.974Z,8.58
2019-03-06T18:22:03.152Z,11.70
2019-03-06T18:24:32.603Z,7.37
2019-03-06T18:27:01.773Z,8.08
2019-03-06T18:29:31.086Z,7.50
2019-03-06T18:32:00.578Z,8.73
2019-03-06T18:34:29.789Z,6.95
2019-03-06T18:36:58.879Z,8.48
2019-03-06T18:39:28.818Z,9.43
2019-03-06T18:41:58.152Z,7.60
2019-03-06T18:44:27.359Z,11.10
2019-03-06T18:46:56.672Z,6.35
2019-03-06T18:49:25.964Z,8.50
2019-03-06T18:51:55.227Z,7.42
2019-03-06T18:54:24.624Z,7.27
2019-03-06T18:57:13.460Z,6.58
2019-03-06T18:59:42.783Z,10.20
2019-03-06T19:02:12.365Z,8.10
2019-03-06T19:04:41.734Z,8.03
2019-03-06T19:07:11.164Z,8.30
2019-03-06T19:09:40.527Z,9.03
2019-03-06T19:12:09.780Z,6.08
2019-03-06T19:14:39.115Z,7.35
2019-03-06T19:17:08.211Z,8.50
2019-03-06T19:19:37.560Z,7.03
2019-03-06T19:22:07.233Z,9.30
2019-03-06T19:24:36.623Z,8.47
2019-03-06T19:27:05.859Z,9.70
2019-03-06T19:29:35.206Z,8.97
2019-03-06T19:32:05.175Z,8.73
2019-03-06T19:34:34.419Z,9.00
2019-03-06T19:37:03.776Z,7.45
2019-03-06T19:39:33.189Z,6.40
2019-03-06T19:42:02.631Z,8.38
2019-03-06T19:44:31.848Z,7.20
2019-03-06T19:47:01.200Z,12.70
2019-03-06T19:49:30.585Z,8.53
2019-03-06T19:52:00.048Z,7.15
2019-03-06T19:54:29.271Z,7.90
2019-03-06T19:56:58.684Z,8.83
2019-03-06T19:59:27.942Z,9.90
2019-03-06T20:01:57.243Z,12.13
2019-03-06T20:04:26.437Z,8.23
2019-03-06T20:06:55.815Z,7.87
2019-03-06T20:09:26.770Z,7.42
2019-03-06T20:11:55.977Z,8.97
2019-03-06T20:14:25.444Z,8.65
2019-03-06T20:16:54.695Z,6.87
2019-03-06T20:19:24.030Z,11.90
2019-03-06T20:21:53.786Z,7.75
2019-03-06T20:24:23.146Z,7.03
2019-03-06T20:26:52.402Z,9.57
2019-03-06T20:29:21.695Z,7.60
2019-03-06T20:31:50.966Z,6.35
2019-03-06T20:34:20.226Z,9.53
2019-03-06T20:36:49.783Z,10.90
2019-03-06T20:39:19.303Z,9.93
2019-03-06T20:42:07.612Z,7.20
2019-03-06T20:44:37.435Z,9.30
2019-03-06T20:47:06.589Z,6.33
2019-03-06T20:49:35.855Z,8.97
2019-03-06T20:52:05.436Z,11.77
2019-03-06T20:54:34.610Z,5.85
2019-03-06T20:57:03.859Z,7.28
2019-03-06T20:59:32.979Z,6.97
2019-03-06T21:02:02.174Z,10.50
2019-03-06T21:04:31.484Z,9.93
2019-03-06T21:07:00.949Z,11.80
2019-03-06T21:09:30.416Z,9.43
2019-03-06T21:11:59.684Z,9.13
2019-03-06T21:14:29.055Z,11.18
2019-03-06T21:16:58.440Z,9.88
2019-03-06T21:19:27.757Z,7.10
2019-03-06T21:21:57.031Z,8.60
2019-03-06T21:24:26.581Z,9.07
2019-03-06T21:26:55.941Z,8.55
2019-03-06T21:29:25.146Z,8.48
2019-03-06T21:31:55.630Z,10.50
2019-03-06T21:34:24.891Z,10.35
2019-03-06T21:36:54.176Z,7.67
2019-03-06T21:39:25.293Z,8.73
2019-03-06T21:41:54.443Z,8.00
2019-03-06T21:44:23.952Z,7.22
2019-03-06T21:46:53.197Z,6.97
2019-03-06T21:49:22.518Z,8.00
2019-03-06T21:51:51.987Z,10.43
2019-03-06T21:54:21.698Z,7.95
2019-03-06T21:56:50.960Z,8.55
2019-03-06T21:59:20.195Z,9.30
2019-03-06T22:01:49.404Z,8.18
2019-03-06T22:04:18.576Z,7.23
2019-03-06T22:06:48.294Z,9.25
2019-03-06T22:09:18.700Z,8.95
2019-03-06T22:11:48.175Z,7.70
2019-03-06T22:14:17.439Z,8.43
2019-03-06T22:16:46.594Z,9.23
2019-03-06T22:19:16.062Z,9.53
2019-03-06T22:21:45.348Z,8.45
2019-03-06T22:24:14.573Z,8.20
2019-03-06T22:26:43.961Z,8.77
2019-03-06T22:29:13.296Z,9.13
2019-03-06T22:31:42.639Z,8.00
2019-03-06T22:34:13.627Z,12.20
2019-03-06T22:36:42.984Z,9.18
2019-03-06T22:39:12.696Z,10.23
2019-03-06T22:41:42.083Z,13.60
2019-03-06T22:44:13.388Z,9.90
2019-03-06T22:46:42.345Z,10.30
2019-03-06T22:49:11.695Z,11.17
2019-03-06T22:51:46.305Z,9.33
2019-03-06T22:54:20.144Z,10.13
2019-03-06T22:56:50.409Z,12.98
2019-03-06T22:59:19.952Z,11.90
2019-03-06T23:01:54.011Z,13.38
2019-03-06T23:04:28.980Z,10.60
2019-03-06T23:06:59.719Z,9.98
2019-03-06T23:09:30.588Z,13.67
2019-03-06T23:12:03.124Z,9.80
2019-03-06T23:15:08.040Z,12.28
2019-03-06T23:17:16.323Z,10.23
2019-03-06T23:19:45.509Z,10.60
2019-03-06T23:22:14.772Z,11.77
2019-03-06T23:24:44.008Z,12.50
2019-03-06T23:27:13.392Z,11.13
2019-03-06T23:29:42.586Z,11.08
2019-03-06T23:32:11.889Z,9.40
2019-03-06T23:34:41.136Z,9.03
2019-03-06T23:37:10.310Z,8.30
2019-03-06T23:39:39.885Z,10.10
2019-03-06T23:42:09.101Z,10.55
2019-03-06T23:44:38.307Z,12.47
2019-03-06T23:47:07.534Z,12.07
2019-03-06T23:49:37.089Z,9.18
2019-03-06T23:52:19.168Z,7.43
2019-03-06T23:54:48.478Z,7.63
2019-03-06T23:57:36.873Z,9.43
